sensor_id;sensor_type;location;lat;lon;timestamp;temperature;humidity
75738;DHT22;64356;45.638;13.764;2023-07-30T00:00:22;26.80;68.90
75738;DHT22;64356;45.638;13.764;2023-07-30T00:02:47;26.80;68.90
75738;DHT22;64356;45.638;13.764;2023-07-30T00:05:13;26.80;68.80
75738;DHT22;64356;45.638;13.764;2023-07-30T00:07:38;26.80;68.80
75738;DHT22;64356;45.638;13.764;2023-07-30T00:10:04;26.80;68.80
75738;DHT22;64356;45.638;13.764;2023-07-30T00:12:30;26.80;68.90
75738;DHT22;64356;45.638;13.764;2023-07-30T00:14:55;26.80;68.90
75738;DHT22;64356;45.638;13.764;2023-07-30T00:17:21;26.80;68.80
75738;DHT22;64356;45.638;13.764;2023-07-30T00:19:46;26.80;68.60
75738;DHT22;64356;45.638;13.764;2023-07-30T00:22:12;26.80;68.30
75738;DHT22;64356;45.638;13.764;2023-07-30T00:24:37;26.80;68.00
75738;DHT22;64356;45.638;13.764;2023-07-30T00:27:03;26.80;67.50
75738;DHT22;64356;45.638;13.764;2023-07-30T00:29:29;26.80;66.90
75738;DHT22;64356;45.638;13.764;2023-07-30T00:31:54;26.80;66.40
75738;DHT22;64356;45.638;13.764;2023-07-30T00:34:20;26.80;65.90
75738;DHT22;64356;45.638;13.764;2023-07-30T00:36:45;26.80;65.50
75738;DHT22;64356;45.638;13.764;2023-07-30T00:39:11;26.80;65.40
75738;DHT22;64356;45.638;13.764;2023-07-30T00:41:36;26.80;65.00
75738;DHT22;64356;45.638;13.764;2023-07-30T00:44:02;26.80;64.80
75738;DHT22;64356;45.638;13.764;2023-07-30T00:46:29;26.80;64.50
75738;DHT22;64356;45.638;13.764;2023-07-30T00:48:55;26.80;64.40
75738;DHT22;64356;45.638;13.764;2023-07-30T00:51:21;26.80;64.20
75738;DHT22;64356;45.638;13.764;2023-07-30T00:53:46;26.80;64.10
75738;DHT22;64356;45.638;13.764;2023-07-30T00:56:12;26.80;64.00
75738;DHT22;64356;45.638;13.764;2023-07-30T00:58:39;26.80;64.70
75738;DHT22;64356;45.638;13.764;2023-07-30T01:01:06;26.80;64.20
75738;DHT22;64356;45.638;13.764;2023-07-30T01:03:32;26.80;64.30
75738;DHT22;64356;45.638;13.764;2023-07-30T01:05:57;26.80;64.40
75738;DHT22;64356;45.638;13.764;2023-07-30T01:08:23;26.80;64.50
75738;DHT22;64356;45.638;13.764;2023-07-30T01:10:48;26.80;64.50
75738;DHT22;64356;45.638;13.764;2023-07-30T01:13:14;26.80;64.50
75738;DHT22;64356;45.638;13.764;2023-07-30T01:15:40;26.80;64.40
75738;DHT22;64356;45.638;13.764;2023-07-30T01:18:06;26.80;64.30
75738;DHT22;64356;45.638;13.764;2023-07-30T01:20:32;26.80;64.40
75738;DHT22;64356;45.638;13.764;2023-07-30T01:22:58;26.80;64.20
75738;DHT22;64356;45.638;13.764;2023-07-30T01:25:23;26.80;64.10
75738;DHT22;64356;45.638;13.764;2023-07-30T01:27:51;26.80;64.00
75738;DHT22;64356;45.638;13.764;2023-07-30T01:30:17;26.80;64.00
75738;DHT22;64356;45.638;13.764;2023-07-30T01:32:43;26.80;63.80
75738;DHT22;64356;45.638;13.764;2023-07-30T01:35:10;26.80;63.60
75738;DHT22;64356;45.638;13.764;2023-07-30T01:37:37;26.80;63.40
75738;DHT22;64356;45.638;13.764;2023-07-30T01:40:04;26.80;63.30
75738;DHT22;64356;45.638;13.764;2023-07-30T01:42:30;26.80;63.10
75738;DHT22;64356;45.638;13.764;2023-07-30T01:44:56;26.80;62.90
75738;DHT22;64356;45.638;13.764;2023-07-30T01:47:21;26.80;62.80
75738;DHT22;64356;45.638;13.764;2023-07-30T01:49:47;26.80;62.60
75738;DHT22;64356;45.638;13.764;2023-07-30T01:52:12;26.80;62.40
75738;DHT22;64356;45.638;13.764;2023-07-30T01:54:38;26.80;62.30
75738;DHT22;64356;45.638;13.764;2023-07-30T01:57:04;26.80;62.20
75738;DHT22;64356;45.638;13.764;2023-07-30T01:59:29;26.80;62.10
75738;DHT22;64356;45.638;13.764;2023-07-30T02:01:55;26.80;61.90
75738;DHT22;64356;45.638;13.764;2023-07-30T02:04:20;26.80;61.80
75738;DHT22;64356;45.638;13.764;2023-07-30T02:06:46;26.80;61.70
75738;DHT22;64356;45.638;13.764;2023-07-30T02:09:11;26.80;61.70
75738;DHT22;64356;45.638;13.764;2023-07-30T02:11:37;26.80;61.60
75738;DHT22;64356;45.638;13.764;2023-07-30T02:14:02;26.80;61.40
75738;DHT22;64356;45.638;13.764;2023-07-30T02:16:28;26.80;61.20
75738;DHT22;64356;45.638;13.764;2023-07-30T02:18:53;26.80;61.00
75738;DHT22;64356;45.638;13.764;2023-07-30T02:21:19;26.80;61.00
75738;DHT22;64356;45.638;13.764;2023-07-30T02:23:44;26.80;61.00
75738;DHT22;64356;45.638;13.764;2023-07-30T02:26:10;26.80;61.10
75738;DHT22;64356;45.638;13.764;2023-07-30T02:28:36;26.80;61.00
75738;DHT22;64356;45.638;13.764;2023-07-30T02:31:01;26.80;61.10
75738;DHT22;64356;45.638;13.764;2023-07-30T02:33:27;26.80;61.60
75738;DHT22;64356;45.638;13.764;2023-07-30T02:35:52;26.80;62.30
75738;DHT22;64356;45.638;13.764;2023-07-30T02:38:18;26.80;63.00
75738;DHT22;64356;45.638;13.764;2023-07-30T02:40:43;26.80;63.60
75738;DHT22;64356;45.638;13.764;2023-07-30T02:43:09;26.80;64.10
75738;DHT22;64356;45.638;13.764;2023-07-30T02:45:34;26.80;64.40
75738;DHT22;64356;45.638;13.764;2023-07-30T02:48:00;26.80;64.60
75738;DHT22;64356;45.638;13.764;2023-07-30T02:50:25;26.80;64.70
75738;DHT22;64356;45.638;13.764;2023-07-30T02:52:51;26.80;64.60
75738;DHT22;64356;45.638;13.764;2023-07-30T02:55:17;26.80;64.00
75738;DHT22;64356;45.638;13.764;2023-07-30T02:57:42;26.80;63.90
75738;DHT22;64356;45.638;13.764;2023-07-30T03:00:08;26.80;63.80
75738;DHT22;64356;45.638;13.764;2023-07-30T03:02:36;26.80;64.00
75738;DHT22;64356;45.638;13.764;2023-07-30T03:05:02;26.80;64.00
75738;DHT22;64356;45.638;13.764;2023-07-30T03:07:27;26.80;64.60
75738;DHT22;64356;45.638;13.764;2023-07-30T03:09:53;26.80;65.40
75738;DHT22;64356;45.638;13.764;2023-07-30T03:12:18;26.80;65.70
75738;DHT22;64356;45.638;13.764;2023-07-30T03:14:44;26.80;65.70
75738;DHT22;64356;45.638;13.764;2023-07-30T03:17:09;26.80;65.50
75738;DHT22;64356;45.638;13.764;2023-07-30T03:19:35;26.80;65.70
75738;DHT22;64356;45.638;13.764;2023-07-30T03:22:01;26.80;65.70
75738;DHT22;64356;45.638;13.764;2023-07-30T03:24:26;26.80;65.70
75738;DHT22;64356;45.638;13.764;2023-07-30T03:26:52;26.80;65.80
75738;DHT22;64356;45.638;13.764;2023-07-30T03:29:17;26.80;66.00
75738;DHT22;64356;45.638;13.764;2023-07-30T03:31:43;26.80;66.20
75738;DHT22;64356;45.638;13.764;2023-07-30T03:34:08;26.80;66.20
75738;DHT22;64356;45.638;13.764;2023-07-30T03:36:34;26.80;66.30
75738;DHT22;64356;45.638;13.764;2023-07-30T03:38:59;26.80;66.40
75738;DHT22;64356;45.638;13.764;2023-07-30T03:41:25;26.80;66.40
75738;DHT22;64356;45.638;13.764;2023-07-30T03:43:50;26.80;66.30
75738;DHT22;64356;45.638;13.764;2023-07-30T03:46:16;26.80;66.20
75738;DHT22;64356;45.638;13.764;2023-07-30T03:48:42;26.80;66.00
75738;DHT22;64356;45.638;13.764;2023-07-30T03:51:07;26.80;65.80
75738;DHT22;64356;45.638;13.764;2023-07-30T03:53:33;26.80;65.80
75738;DHT22;64356;45.638;13.764;2023-07-30T03:55:58;26.70;65.50
75738;DHT22;64356;45.638;13.764;2023-07-30T03:58:24;26.80;65.50
75738;DHT22;64356;45.638;13.764;2023-07-30T04:00:49;26.80;65.20
75738;DHT22;64356;45.638;13.764;2023-07-30T04:03:15;26.80;64.90
75738;DHT22;64356;45.638;13.764;2023-07-30T04:05:40;26.70;64.60
75738;DHT22;64356;45.638;13.764;2023-07-30T04:08:06;26.70;64.40
75738;DHT22;64356;45.638;13.764;2023-07-30T04:10:32;26.70;64.40
75738;DHT22;64356;45.638;13.764;2023-07-30T04:12:57;26.70;64.20
75738;DHT22;64356;45.638;13.764;2023-07-30T04:15:23;26.70;64.20
75738;DHT22;64356;45.638;13.764;2023-07-30T04:17:48;26.70;64.30
75738;DHT22;64356;45.638;13.764;2023-07-30T04:20:14;26.70;64.30
75738;DHT22;64356;45.638;13.764;2023-07-30T04:22:40;26.70;64.20
75738;DHT22;64356;45.638;13.764;2023-07-30T04:25:07;26.70;64.40
75738;DHT22;64356;45.638;13.764;2023-07-30T04:27:33;26.70;65.00
75738;DHT22;64356;45.638;13.764;2023-07-30T04:29:58;26.70;65.20
75738;DHT22;64356;45.638;13.764;2023-07-30T04:32:24;26.60;65.10
75738;DHT22;64356;45.638;13.764;2023-07-30T04:34:49;26.60;65.00
75738;DHT22;64356;45.638;13.764;2023-07-30T04:37:15;26.70;65.00
75738;DHT22;64356;45.638;13.764;2023-07-30T04:39:40;26.70;64.90
75738;DHT22;64356;45.638;13.764;2023-07-30T04:42:06;26.70;64.60
75738;DHT22;64356;45.638;13.764;2023-07-30T04:44:32;26.70;64.60
75738;DHT22;64356;45.638;13.764;2023-07-30T04:46:57;26.70;64.70
75738;DHT22;64356;45.638;13.764;2023-07-30T04:49:23;26.60;64.50
75738;DHT22;64356;45.638;13.764;2023-07-30T04:51:48;26.70;64.50
75738;DHT22;64356;45.638;13.764;2023-07-30T04:54:14;26.70;64.50
75738;DHT22;64356;45.638;13.764;2023-07-30T04:56:39;26.70;64.60
75738;DHT22;64356;45.638;13.764;2023-07-30T04:59:05;26.70;64.80
75738;DHT22;64356;45.638;13.764;2023-07-30T05:01:31;26.60;64.80
75738;DHT22;64356;45.638;13.764;2023-07-30T05:03:56;26.70;64.80
75738;DHT22;64356;45.638;13.764;2023-07-30T05:06:22;26.70;64.80
75738;DHT22;64356;45.638;13.764;2023-07-30T05:08:47;26.70;64.80
75738;DHT22;64356;45.638;13.764;2023-07-30T05:11:13;26.60;64.80
75738;DHT22;64356;45.638;13.764;2023-07-30T05:13:38;26.60;64.90
75738;DHT22;64356;45.638;13.764;2023-07-30T05:16:04;26.60;64.80
75738;DHT22;64356;45.638;13.764;2023-07-30T05:18:30;26.60;64.60
75738;DHT22;64356;45.638;13.764;2023-07-30T05:20:55;26.60;64.50
75738;DHT22;64356;45.638;13.764;2023-07-30T05:23:21;26.60;64.20
75738;DHT22;64356;45.638;13.764;2023-07-30T05:25:46;26.60;64.10
75738;DHT22;64356;45.638;13.764;2023-07-30T05:28:12;26.60;64.00
75738;DHT22;64356;45.638;13.764;2023-07-30T05:30:38;26.60;63.80
75738;DHT22;64356;45.638;13.764;2023-07-30T05:33:03;26.70;63.50
75738;DHT22;64356;45.638;13.764;2023-07-30T05:35:29;26.60;63.30
75738;DHT22;64356;45.638;13.764;2023-07-30T05:37:55;26.60;63.80
75738;DHT22;64356;45.638;13.764;2023-07-30T05:40:20;26.60;63.10
75738;DHT22;64356;45.638;13.764;2023-07-30T05:42:46;26.60;62.80
75738;DHT22;64356;45.638;13.764;2023-07-30T05:45:12;26.60;62.70
75738;DHT22;64356;45.638;13.764;2023-07-30T05:47:37;26.70;62.70
75738;DHT22;64356;45.638;13.764;2023-07-30T05:50:03;26.70;62.70
75738;DHT22;64356;45.638;13.764;2023-07-30T05:52:29;26.70;62.40
75738;DHT22;64356;45.638;13.764;2023-07-30T05:54:54;26.70;62.40
75738;DHT22;64356;45.638;13.764;2023-07-30T05:57:20;26.70;62.30
75738;DHT22;64356;45.638;13.764;2023-07-30T05:59:45;26.70;62.00
75738;DHT22;64356;45.638;13.764;2023-07-30T06:02:12;26.70;62.00
75738;DHT22;64356;45.638;13.764;2023-07-30T06:04:37;26.70;61.90
75738;DHT22;64356;45.638;13.764;2023-07-30T06:07:03;26.70;61.90
75738;DHT22;64356;45.638;13.764;2023-07-30T06:09:29;26.70;61.70
75738;DHT22;64356;45.638;13.764;2023-07-30T06:11:57;26.70;61.60
75738;DHT22;64356;45.638;13.764;2023-07-30T06:14:23;26.70;61.40
75738;DHT22;64356;45.638;13.764;2023-07-30T06:16:49;26.80;61.20
75738;DHT22;64356;45.638;13.764;2023-07-30T06:19:14;26.70;60.80
75738;DHT22;64356;45.638;13.764;2023-07-30T06:21:40;26.80;60.80
75738;DHT22;64356;45.638;13.764;2023-07-30T06:24:05;26.70;60.40
75738;DHT22;64356;45.638;13.764;2023-07-30T06:26:31;26.80;60.60
75738;DHT22;64356;45.638;13.764;2023-07-30T06:28:57;26.80;60.50
75738;DHT22;64356;45.638;13.764;2023-07-30T06:31:23;26.70;60.30
75738;DHT22;64356;45.638;13.764;2023-07-30T06:33:48;26.80;60.50
75738;DHT22;64356;45.638;13.764;2023-07-30T06:36:14;26.80;61.00
75738;DHT22;64356;45.638;13.764;2023-07-30T06:38:40;26.70;60.70
75738;DHT22;64356;45.638;13.764;2023-07-30T06:41:05;26.70;61.10
75738;DHT22;64356;45.638;13.764;2023-07-30T06:43:31;26.70;61.60
75738;DHT22;64356;45.638;13.764;2023-07-30T06:45:56;26.70;61.20
75738;DHT22;64356;45.638;13.764;2023-07-30T06:48:22;26.70;61.10
75738;DHT22;64356;45.638;13.764;2023-07-30T06:50:47;26.70;61.10
75738;DHT22;64356;45.638;13.764;2023-07-30T06:53:13;26.70;61.20
75738;DHT22;64356;45.638;13.764;2023-07-30T06:55:38;26.70;61.20
75738;DHT22;64356;45.638;13.764;2023-07-30T06:58:04;26.70;61.20
75738;DHT22;64356;45.638;13.764;2023-07-30T07:00:30;26.70;61.10
75738;DHT22;64356;45.638;13.764;2023-07-30T07:02:56;26.70;61.10
75738;DHT22;64356;45.638;13.764;2023-07-30T07:05:21;26.70;61.00
75738;DHT22;64356;45.638;13.764;2023-07-30T07:07:47;26.70;61.00
75738;DHT22;64356;45.638;13.764;2023-07-30T07:10:12;26.70;60.80
75738;DHT22;64356;45.638;13.764;2023-07-30T07:12:39;26.80;60.70
75738;DHT22;64356;45.638;13.764;2023-07-30T07:15:05;26.80;60.60
75738;DHT22;64356;45.638;13.764;2023-07-30T07:17:30;26.80;60.30
75738;DHT22;64356;45.638;13.764;2023-07-30T07:19:56;26.80;60.20
75738;DHT22;64356;45.638;13.764;2023-07-30T07:22:22;26.80;60.10
75738;DHT22;64356;45.638;13.764;2023-07-30T07:24:48;26.80;60.10
75738;DHT22;64356;45.638;13.764;2023-07-30T07:27:13;26.80;60.10
75738;DHT22;64356;45.638;13.764;2023-07-30T07:29:39;26.80;60.60
75738;DHT22;64356;45.638;13.764;2023-07-30T07:32:04;26.80;60.30
75738;DHT22;64356;45.638;13.764;2023-07-30T07:34:30;26.80;60.30
75738;DHT22;64356;45.638;13.764;2023-07-30T07:36:56;26.80;60.40
75738;DHT22;64356;45.638;13.764;2023-07-30T07:39:21;26.80;60.50
75738;DHT22;64356;45.638;13.764;2023-07-30T07:41:47;26.80;60.50
75738;DHT22;64356;45.638;13.764;2023-07-30T07:44:12;26.80;60.40
75738;DHT22;64356;45.638;13.764;2023-07-30T07:46:38;26.80;60.40
75738;DHT22;64356;45.638;13.764;2023-07-30T07:49:03;26.80;60.90
75738;DHT22;64356;45.638;13.764;2023-07-30T07:51:29;26.80;60.80
75738;DHT22;64356;45.638;13.764;2023-07-30T07:53:54;26.80;60.80
75738;DHT22;64356;45.638;13.764;2023-07-30T07:56:20;26.80;60.90
75738;DHT22;64356;45.638;13.764;2023-07-30T07:58:45;26.80;61.00
75738;DHT22;64356;45.638;13.764;2023-07-30T08:01:11;26.80;61.30
75738;DHT22;64356;45.638;13.764;2023-07-30T08:03:37;26.80;62.00
75738;DHT22;64356;45.638;13.764;2023-07-30T08:06:02;26.80;61.70
75738;DHT22;64356;45.638;13.764;2023-07-30T08:08:28;26.80;61.40
75738;DHT22;64356;45.638;13.764;2023-07-30T08:10:53;26.80;61.20
75738;DHT22;64356;45.638;13.764;2023-07-30T08:13:19;26.80;61.20
75738;DHT22;64356;45.638;13.764;2023-07-30T08:15:45;26.80;61.10
75738;DHT22;64356;45.638;13.764;2023-07-30T08:18:11;26.80;62.00
75738;DHT22;64356;45.638;13.764;2023-07-30T08:20:37;26.80;62.40
75738;DHT22;64356;45.638;13.764;2023-07-30T08:23:02;26.80;61.90
75738;DHT22;64356;45.638;13.764;2023-07-30T08:25:28;26.80;61.50
75738;DHT22;64356;45.638;13.764;2023-07-30T08:27:53;26.80;61.50
75738;DHT22;64356;45.638;13.764;2023-07-30T08:30:19;26.80;61.80
75738;DHT22;64356;45.638;13.764;2023-07-30T08:32:45;26.80;62.10
75738;DHT22;64356;45.638;13.764;2023-07-30T08:35:10;26.80;62.30
75738;DHT22;64356;45.638;13.764;2023-07-30T08:37:36;26.80;62.70
75738;DHT22;64356;45.638;13.764;2023-07-30T08:40:02;26.80;62.80
75738;DHT22;64356;45.638;13.764;2023-07-30T08:42:28;26.80;63.10
75738;DHT22;64356;45.638;13.764;2023-07-30T08:44:54;26.80;63.40
75738;DHT22;64356;45.638;13.764;2023-07-30T08:47:19;26.80;63.50
75738;DHT22;64356;45.638;13.764;2023-07-30T08:49:45;26.70;63.80
75738;DHT22;64356;45.638;13.764;2023-07-30T08:52:10;26.80;63.90
75738;DHT22;64356;45.638;13.764;2023-07-30T08:54:37;26.80;63.70
75738;DHT22;64356;45.638;13.764;2023-07-30T08:57:03;26.80;63.70
75738;DHT22;64356;45.638;13.764;2023-07-30T08:59:37;26.80;63.70
75738;DHT22;64356;45.638;13.764;2023-07-30T09:02:03;26.80;63.60
75738;DHT22;64356;45.638;13.764;2023-07-30T09:04:29;26.90;63.70
75738;DHT22;64356;45.638;13.764;2023-07-30T09:06:59;26.90;63.80
75738;DHT22;64356;45.638;13.764;2023-07-30T09:09:25;26.90;64.00
75738;DHT22;64356;45.638;13.764;2023-07-30T09:11:53;26.90;63.80
75738;DHT22;64356;45.638;13.764;2023-07-30T09:14:20;26.90;63.70
75738;DHT22;64356;45.638;13.764;2023-07-30T09:16:46;27.00;63.90
75738;DHT22;64356;45.638;13.764;2023-07-30T09:19:16;27.00;63.90
75738;DHT22;64356;45.638;13.764;2023-07-30T09:21:42;27.00;63.70
75738;DHT22;64356;45.638;13.764;2023-07-30T09:24:08;27.00;64.20
75738;DHT22;64356;45.638;13.764;2023-07-30T09:26:43;27.00;64.20
75738;DHT22;64356;45.638;13.764;2023-07-30T09:29:09;27.00;63.90
75738;DHT22;64356;45.638;13.764;2023-07-30T09:31:52;27.00;63.90
75738;DHT22;64356;45.638;13.764;2023-07-30T09:34:20;27.10;63.90
75738;DHT22;64356;45.638;13.764;2023-07-30T09:36:46;27.10;63.90
75738;DHT22;64356;45.638;13.764;2023-07-30T09:39:21;27.10;63.90
75738;DHT22;64356;45.638;13.764;2023-07-30T09:41:49;27.10;64.00
75738;DHT22;64356;45.638;13.764;2023-07-30T09:44:16;27.10;63.90
75738;DHT22;64356;45.638;13.764;2023-07-30T09:46:42;27.10;63.90
75738;DHT22;64356;45.638;13.764;2023-07-30T09:49:08;27.20;64.00
75738;DHT22;64356;45.638;13.764;2023-07-30T09:51:34;27.10;64.00
75738;DHT22;64356;45.638;13.764;2023-07-30T09:54:01;27.10;64.00
75738;DHT22;64356;45.638;13.764;2023-07-30T09:56:27;27.20;64.00
75738;DHT22;64356;45.638;13.764;2023-07-30T09:58:52;27.20;64.10
75738;DHT22;64356;45.638;13.764;2023-07-30T10:01:18;27.20;63.90
75738;DHT22;64356;45.638;13.764;2023-07-30T10:03:45;27.20;63.90
75738;DHT22;64356;45.638;13.764;2023-07-30T10:06:11;27.20;64.10
75738;DHT22;64356;45.638;13.764;2023-07-30T10:08:38;27.20;64.00
75738;DHT22;64356;45.638;13.764;2023-07-30T10:11:05;27.20;63.80
75738;DHT22;64356;45.638;13.764;2023-07-30T10:13:32;27.20;63.80
75738;DHT22;64356;45.638;13.764;2023-07-30T10:15:58;27.30;63.60
75738;DHT22;64356;45.638;13.764;2023-07-30T10:18:37;27.20;63.60
75738;DHT22;64356;45.638;13.764;2023-07-30T10:21:03;27.30;63.70
75738;DHT22;64356;45.638;13.764;2023-07-30T10:23:29;27.30;63.60
75738;DHT22;64356;45.638;13.764;2023-07-30T10:25:57;27.30;64.00
75738;DHT22;64356;45.638;13.764;2023-07-30T10:28:27;27.30;63.40
75738;DHT22;64356;45.638;13.764;2023-07-30T10:30:56;27.30;63.50
75738;DHT22;64356;45.638;13.764;2023-07-30T10:33:22;27.30;63.30
75738;DHT22;64356;45.638;13.764;2023-07-30T10:35:47;27.30;63.00
75738;DHT22;64356;45.638;13.764;2023-07-30T10:38:17;27.30;62.60
75738;DHT22;64356;45.638;13.764;2023-07-30T10:43:27;27.40;62.30
75738;DHT22;64356;45.638;13.764;2023-07-30T10:45:53;27.40;62.70
75738;DHT22;64356;45.638;13.764;2023-07-30T10:48:19;27.40;62.70
75738;DHT22;64356;45.638;13.764;2023-07-30T10:50:54;27.40;62.70
75738;DHT22;64356;45.638;13.764;2023-07-30T10:53:20;27.40;62.60
75738;DHT22;64356;45.638;13.764;2023-07-30T10:55:45;27.50;62.50
75738;DHT22;64356;45.638;13.764;2023-07-30T10:58:11;27.50;62.40
75738;DHT22;64356;45.638;13.764;2023-07-30T11:00:36;27.50;62.50
75738;DHT22;64356;45.638;13.764;2023-07-30T11:03:02;27.50;62.20
75738;DHT22;64356;45.638;13.764;2023-07-30T11:05:27;27.50;62.00
75738;DHT22;64356;45.638;13.764;2023-07-30T11:07:53;27.50;62.00
75738;DHT22;64356;45.638;13.764;2023-07-30T11:10:19;27.50;61.90
75738;DHT22;64356;45.638;13.764;2023-07-30T11:12:44;27.50;62.10
75738;DHT22;64356;45.638;13.764;2023-07-30T11:15:10;27.50;62.10
75738;DHT22;64356;45.638;13.764;2023-07-30T11:17:37;27.50;61.90
75738;DHT22;64356;45.638;13.764;2023-07-30T11:20:03;27.60;62.40
75738;DHT22;64356;45.638;13.764;2023-07-30T11:22:30;27.60;62.40
75738;DHT22;64356;45.638;13.764;2023-07-30T11:24:57;27.60;62.20
75738;DHT22;64356;45.638;13.764;2023-07-30T11:27:22;27.60;61.90
75738;DHT22;64356;45.638;13.764;2023-07-30T11:29:54;27.60;61.90
75738;DHT22;64356;45.638;13.764;2023-07-30T11:32:20;27.70;62.20
75738;DHT22;64356;45.638;13.764;2023-07-30T11:34:49;27.70;62.20
75738;DHT22;64356;45.638;13.764;2023-07-30T11:37:14;27.70;62.20
75738;DHT22;64356;45.638;13.764;2023-07-30T11:39:40;27.70;62.10
75738;DHT22;64356;45.638;13.764;2023-07-30T11:42:06;27.70;62.10
75738;DHT22;64356;45.638;13.764;2023-07-30T11:44:32;27.70;62.10
75738;DHT22;64356;45.638;13.764;2023-07-30T11:46:58;27.70;62.10
75738;DHT22;64356;45.638;13.764;2023-07-30T11:49:24;27.70;62.00
75738;DHT22;64356;45.638;13.764;2023-07-30T11:51:49;27.80;62.10
75738;DHT22;64356;45.638;13.764;2023-07-30T11:54:20;27.80;62.10
75738;DHT22;64356;45.638;13.764;2023-07-30T11:56:46;27.80;62.00
75738;DHT22;64356;45.638;13.764;2023-07-30T11:59:11;27.80;61.90
75738;DHT22;64356;45.638;13.764;2023-07-30T12:01:37;27.80;61.90
75738;DHT22;64356;45.638;13.764;2023-07-30T12:04:04;27.80;61.90
75738;DHT22;64356;45.638;13.764;2023-07-30T12:09:17;27.80;61.70
75738;DHT22;64356;45.638;13.764;2023-07-30T12:11:47;27.80;61.50
75738;DHT22;64356;45.638;13.764;2023-07-30T12:14:14;27.80;61.40
75738;DHT22;64356;45.638;13.764;2023-07-30T12:16:40;27.80;61.40
75738;DHT22;64356;45.638;13.764;2023-07-30T12:19:05;27.80;61.20
75738;DHT22;64356;45.638;13.764;2023-07-30T12:21:31;27.90;61.20
75738;DHT22;64356;45.638;13.764;2023-07-30T12:23:56;27.90;61.30
75738;DHT22;64356;45.638;13.764;2023-07-30T12:26:22;27.90;61.10
75738;DHT22;64356;45.638;13.764;2023-07-30T12:28:47;27.90;60.80
75738;DHT22;64356;45.638;13.764;2023-07-30T12:31:13;27.90;61.00
75738;DHT22;64356;45.638;13.764;2023-07-30T12:33:38;28.00;61.20
75738;DHT22;64356;45.638;13.764;2023-07-30T12:36:04;28.00;61.10
75738;DHT22;64356;45.638;13.764;2023-07-30T12:38:30;28.00;61.10
75738;DHT22;64356;45.638;13.764;2023-07-30T12:40:55;28.00;60.90
75738;DHT22;64356;45.638;13.764;2023-07-30T12:43:21;28.00;61.10
75738;DHT22;64356;45.638;13.764;2023-07-30T12:45:46;28.00;61.20
75738;DHT22;64356;45.638;13.764;2023-07-30T12:48:12;28.00;61.10
75738;DHT22;64356;45.638;13.764;2023-07-30T12:50:38;28.00;61.10
75738;DHT22;64356;45.638;13.764;2023-07-30T12:53:03;28.00;61.10
75738;DHT22;64356;45.638;13.764;2023-07-30T12:55:29;28.00;61.00
75738;DHT22;64356;45.638;13.764;2023-07-30T12:57:55;28.00;61.00
75738;DHT22;64356;45.638;13.764;2023-07-30T13:00:20;28.00;61.00
75738;DHT22;64356;45.638;13.764;2023-07-30T13:02:46;28.00;61.20
75738;DHT22;64356;45.638;13.764;2023-07-30T13:05:11;28.00;61.30
75738;DHT22;64356;45.638;13.764;2023-07-30T13:07:39;28.10;61.30
75738;DHT22;64356;45.638;13.764;2023-07-30T13:10:08;28.00;61.10
75738;DHT22;64356;45.638;13.764;2023-07-30T13:12:34;28.10;61.10
75738;DHT22;64356;45.638;13.764;2023-07-30T13:14:59;28.10;61.20
75738;DHT22;64356;45.638;13.764;2023-07-30T13:17:25;28.10;61.30
75738;DHT22;64356;45.638;13.764;2023-07-30T13:19:51;28.10;61.10
75738;DHT22;64356;45.638;13.764;2023-07-30T13:22:16;28.00;61.00
75738;DHT22;64356;45.638;13.764;2023-07-30T13:24:42;28.00;61.50
75738;DHT22;64356;45.638;13.764;2023-07-30T13:27:07;28.00;61.60
75738;DHT22;64356;45.638;13.764;2023-07-30T13:29:33;27.90;61.70
75738;DHT22;64356;45.638;13.764;2023-07-30T13:31:58;27.90;61.40
75738;DHT22;64356;45.638;13.764;2023-07-30T13:34:24;27.90;61.40
75738;DHT22;64356;45.638;13.764;2023-07-30T13:36:50;27.90;61.40
75738;DHT22;64356;45.638;13.764;2023-07-30T13:39:15;27.90;61.40
75738;DHT22;64356;45.638;13.764;2023-07-30T13:41:41;27.90;61.50
75738;DHT22;64356;45.638;13.764;2023-07-30T13:44:06;27.90;61.70
75738;DHT22;64356;45.638;13.764;2023-07-30T13:46:32;27.90;61.50
75738;DHT22;64356;45.638;13.764;2023-07-30T13:48:57;27.90;61.40
75738;DHT22;64356;45.638;13.764;2023-07-30T13:51:23;27.90;61.60
75738;DHT22;64356;45.638;13.764;2023-07-30T13:53:48;27.80;61.70
75738;DHT22;64356;45.638;13.764;2023-07-30T13:56:14;27.90;62.00
75738;DHT22;64356;45.638;13.764;2023-07-30T13:58:39;27.90;61.70
75738;DHT22;64356;45.638;13.764;2023-07-30T14:01:06;27.90;61.30
75738;DHT22;64356;45.638;13.764;2023-07-30T14:03:31;27.90;61.10
75738;DHT22;64356;45.638;13.764;2023-07-30T14:05:57;27.90;61.80
75738;DHT22;64356;45.638;13.764;2023-07-30T14:08:23;27.90;61.30
75738;DHT22;64356;45.638;13.764;2023-07-30T14:10:48;27.90;61.30
75738;DHT22;64356;45.638;13.764;2023-07-30T14:13:14;28.00;61.60
75738;DHT22;64356;45.638;13.764;2023-07-30T14:15:39;28.00;61.80
75738;DHT22;64356;45.638;13.764;2023-07-30T14:18:05;27.90;61.50
75738;DHT22;64356;45.638;13.764;2023-07-30T14:20:30;28.00;61.30
75738;DHT22;64356;45.638;13.764;2023-07-30T14:22:57;28.00;61.20
75738;DHT22;64356;45.638;13.764;2023-07-30T14:25:25;28.00;61.50
75738;DHT22;64356;45.638;13.764;2023-07-30T14:27:51;28.00;61.60
75738;DHT22;64356;45.638;13.764;2023-07-30T14:30:17;27.90;61.60
75738;DHT22;64356;45.638;13.764;2023-07-30T14:32:42;28.00;61.60
75738;DHT22;64356;45.638;13.764;2023-07-30T14:35:08;28.00;61.60
75738;DHT22;64356;45.638;13.764;2023-07-30T14:37:33;28.00;61.80
75738;DHT22;64356;45.638;13.764;2023-07-30T14:39:59;27.90;61.80
75738;DHT22;64356;45.638;13.764;2023-07-30T14:42:24;27.90;61.80
75738;DHT22;64356;45.638;13.764;2023-07-30T14:44:50;27.90;61.80
75738;DHT22;64356;45.638;13.764;2023-07-30T14:47:15;27.90;61.90
75738;DHT22;64356;45.638;13.764;2023-07-30T14:49:41;27.90;62.00
75738;DHT22;64356;45.638;13.764;2023-07-30T14:52:07;27.90;62.00
75738;DHT22;64356;45.638;13.764;2023-07-30T14:54:32;27.90;62.10
75738;DHT22;64356;45.638;13.764;2023-07-30T14:56:58;27.90;61.90
75738;DHT22;64356;45.638;13.764;2023-07-30T14:59:23;27.90;62.00
75738;DHT22;64356;45.638;13.764;2023-07-30T15:01:50;27.90;62.00
75738;DHT22;64356;45.638;13.764;2023-07-30T15:04:16;27.90;62.10
75738;DHT22;64356;45.638;13.764;2023-07-30T15:06:41;27.80;62.30
75738;DHT22;64356;45.638;13.764;2023-07-30T15:09:07;27.80;62.30
75738;DHT22;64356;45.638;13.764;2023-07-30T15:11:32;27.80;62.50